sensor_id;sensor_type;location;lat;lon;timestamp;P1;durP1;ratioP1;P2;durP2;ratioP2
32393;SDS011;18853;45.426;9.206;2022-10-17T00:01:42;71.95;;;53.22;;
32393;SDS011;18853;45.426;9.206;2022-10-17T00:04:07;74.80;;;51.63;;
32393;SDS011;18853;45.426;9.206;2022-10-17T00:06:33;72.55;;;51.45;;
32393;SDS011;18853;45.426;9.206;2022-10-17T00:08:59;75.63;;;53.40;;
32393;SDS011;18853;45.426;9.206;2022-10-17T00:11:24;72.40;;;51.28;;
32393;SDS011;18853;45.426;9.206;2022-10-17T00:13:50;71.85;;;50.78;;
32393;SDS011;18853;45.426;9.206;2022-10-17T00:16:26;74.13;;;53.10;;
32393;SDS011;18853;45.426;9.206;2022-10-17T00:18:53;75.88;;;52.53;;
32393;SDS011;18853;45.426;9.206;2022-10-17T00:21:19;73.70;;;51.60;;
32393;SDS011;18853;45.426;9.206;2022-10-17T00:23:46;74.53;;;52.25;;
32393;SDS011;18853;45.426;9.206;2022-10-17T00:26:11;71.43;;;50.60;;
32393;SDS011;18853;45.426;9.206;2022-10-17T00:28:38;74.10;;;52.33;;
32393;SDS011;18853;45.426;9.206;2022-10-17T00:31:04;76.80;;;52.03;;
32393;SDS011;18853;45.426;9.206;2022-10-17T00:33:31;74.90;;;52.17;;
32393;SDS011;18853;45.426;9.206;2022-10-17T00:36:11;71.22;;;50.85;;
32393;SDS011;18853;45.426;9.206;2022-10-17T00:38:40;75.75;;;51.10;;
32393;SDS011;18853;45.426;9.206;2022-10-17T00:41:07;74.93;;;51.55;;
32393;SDS011;18853;45.426;9.206;2022-10-17T00:43:50;76.68;;;52.47;;
32393;SDS011;18853;45.426;9.206;2022-10-17T00:46:23;76.70;;;53.17;;
32393;SDS011;18853;45.426;9.206;2022-10-17T00:49:01;76.95;;;53.40;;
32393;SDS011;18853;45.426;9.206;2022-10-17T00:54:00;76.28;;;52.78;;
32393;SDS011;18853;45.426;9.206;2022-10-17T00:56:27;70.25;;;51.03;;
32393;SDS011;18853;45.426;9.206;2022-10-17T00:58:54;75.20;;;53.38;;
32393;SDS011;18853;45.426;9.206;2022-10-17T01:01:20;79.10;;;53.00;;
32393;SDS011;18853;45.426;9.206;2022-10-17T01:03:46;75.85;;;52.67;;
32393;SDS011;18853;45.426;9.206;2022-10-17T01:06:11;77.20;;;52.53;;
32393;SDS011;18853;45.426;9.206;2022-10-17T01:08:37;75.57;;;53.25;;
32393;SDS011;18853;45.426;9.206;2022-10-17T01:13:39;76.78;;;53.22;;
32393;SDS011;18853;45.426;9.206;2022-10-17T01:16:11;78.35;;;54.22;;
32393;SDS011;18853;45.426;9.206;2022-10-17T01:18:50;73.75;;;52.22;;
32393;SDS011;18853;45.426;9.206;2022-10-17T01:32:18;79.30;;;53.30;;
32393;SDS011;18853;45.426;9.206;2022-10-17T01:35:21;71.15;;;52.63;;
32393;SDS011;18853;45.426;9.206;2022-10-17T01:37:48;81.10;;;53.53;;
32393;SDS011;18853;45.426;9.206;2022-10-17T01:42:58;74.90;;;53.70;;
32393;SDS011;18853;45.426;9.206;2022-10-17T01:45:32;77.55;;;54.63;;
32393;SDS011;18853;45.426;9.206;2022-10-17T01:48:13;78.15;;;54.15;;
32393;SDS011;18853;45.426;9.206;2022-10-17T01:50:44;77.65;;;53.95;;
32393;SDS011;18853;45.426;9.206;2022-10-17T01:53:32;83.43;;;55.42;;
32393;SDS011;18853;45.426;9.206;2022-10-17T01:56:01;81.97;;;54.58;;
32393;SDS011;18853;45.426;9.206;2022-10-17T01:58:32;75.43;;;54.20;;
32393;SDS011;18853;45.426;9.206;2022-10-17T02:01:04;77.18;;;52.85;;
32393;SDS011;18853;45.426;9.206;2022-10-17T02:03:33;80.80;;;56.53;;
32393;SDS011;18853;45.426;9.206;2022-10-17T02:06:00;78.60;;;54.63;;
32393;SDS011;18853;45.426;9.206;2022-10-17T02:08:27;80.30;;;55.25;;
32393;SDS011;18853;45.426;9.206;2022-10-17T02:11:04;86.55;;;57.30;;
32393;SDS011;18853;45.426;9.206;2022-10-17T02:27:05;82.85;;;56.50;;
32393;SDS011;18853;45.426;9.206;2022-10-17T02:29:49;83.82;;;56.45;;
32393;SDS011;18853;45.426;9.206;2022-10-17T02:32:29;84.70;;;59.73;;
32393;SDS011;18853;45.426;9.206;2022-10-17T02:35:01;88.22;;;58.90;;
32393;SDS011;18853;45.426;9.206;2022-10-17T02:37:29;87.80;;;59.67;;
32393;SDS011;18853;45.426;9.206;2022-10-17T02:39:56;85.25;;;59.03;;
32393;SDS011;18853;45.426;9.206;2022-10-17T02:42:24;85.97;;;57.97;;
32393;SDS011;18853;45.426;9.206;2022-10-17T02:44:51;85.30;;;56.67;;
32393;SDS011;18853;45.426;9.206;2022-10-17T02:47:22;88.57;;;58.20;;
32393;SDS011;18853;45.426;9.206;2022-10-17T02:49:52;92.13;;;59.95;;
32393;SDS011;18853;45.426;9.206;2022-10-17T02:57:43;87.63;;;59.08;;
32393;SDS011;18853;45.426;9.206;2022-10-17T03:00:11;86.43;;;59.40;;
32393;SDS011;18853;45.426;9.206;2022-10-17T03:02:49;88.93;;;59.72;;
32393;SDS011;18853;45.426;9.206;2022-10-17T03:05:17;92.43;;;59.72;;
32393;SDS011;18853;45.426;9.206;2022-10-17T03:10:24;89.80;;;60.40;;
32393;SDS011;18853;45.426;9.206;2022-10-17T03:12:49;95.00;;;62.63;;
32393;SDS011;18853;45.426;9.206;2022-10-17T03:15:15;92.65;;;61.00;;
32393;SDS011;18853;45.426;9.206;2022-10-17T03:17:41;89.32;;;61.78;;
32393;SDS011;18853;45.426;9.206;2022-10-17T03:20:06;92.80;;;63.70;;
32393;SDS011;18853;45.426;9.206;2022-10-17T03:22:32;95.30;;;61.88;;
32393;SDS011;18853;45.426;9.206;2022-10-17T03:24:58;95.85;;;62.83;;
32393;SDS011;18853;45.426;9.206;2022-10-17T03:27:24;98.18;;;63.03;;
32393;SDS011;18853;45.426;9.206;2022-10-17T03:29:50;94.55;;;63.22;;
32393;SDS011;18853;45.426;9.206;2022-10-17T03:32:15;96.55;;;62.53;;
32393;SDS011;18853;45.426;9.206;2022-10-17T03:34:41;101.43;;;63.45;;
32393;SDS011;18853;45.426;9.206;2022-10-17T03:37:07;96.88;;;63.17;;
32393;SDS011;18853;45.426;9.206;2022-10-17T03:39:32;100.50;;;64.63;;
32393;SDS011;18853;45.426;9.206;2022-10-17T03:41:58;95.55;;;63.42;;
32393;SDS011;18853;45.426;9.206;2022-10-17T03:44:23;99.28;;;63.50;;
32393;SDS011;18853;45.426;9.206;2022-10-17T03:46:49;102.35;;;63.95;;
32393;SDS011;18853;45.426;9.206;2022-10-17T03:49:15;98.13;;;64.20;;
32393;SDS011;18853;45.426;9.206;2022-10-17T03:51:40;95.97;;;61.15;;
32393;SDS011;18853;45.426;9.206;2022-10-17T03:54:06;100.13;;;64.07;;
32393;SDS011;18853;45.426;9.206;2022-10-17T03:56:32;94.00;;;62.47;;
32393;SDS011;18853;45.426;9.206;2022-10-17T03:58:57;97.68;;;61.95;;
32393;SDS011;18853;45.426;9.206;2022-10-17T04:01:23;97.72;;;62.83;;
32393;SDS011;18853;45.426;9.206;2022-10-17T04:03:49;99.03;;;63.90;;
32393;SDS011;18853;45.426;9.206;2022-10-17T04:06:16;96.63;;;62.45;;
32393;SDS011;18853;45.426;9.206;2022-10-17T04:08:42;98.57;;;65.38;;
32393;SDS011;18853;45.426;9.206;2022-10-17T04:11:08;95.82;;;64.32;;
32393;SDS011;18853;45.426;9.206;2022-10-17T04:13:36;100.40;;;63.42;;
32393;SDS011;18853;45.426;9.206;2022-10-17T04:16:03;102.32;;;63.97;;
32393;SDS011;18853;45.426;9.206;2022-10-17T04:18:34;96.53;;;62.17;;
32393;SDS011;18853;45.426;9.206;2022-10-17T04:21:01;95.10;;;61.95;;
32393;SDS011;18853;45.426;9.206;2022-10-17T04:23:27;98.93;;;63.97;;
32393;SDS011;18853;45.426;9.206;2022-10-17T04:25:56;98.82;;;64.50;;
32393;SDS011;18853;45.426;9.206;2022-10-17T04:28:23;98.90;;;62.70;;
32393;SDS011;18853;45.426;9.206;2022-10-17T04:30:59;99.07;;;62.85;;
32393;SDS011;18853;45.426;9.206;2022-10-17T04:33:29;98.50;;;63.05;;
32393;SDS011;18853;45.426;9.206;2022-10-17T04:35:57;95.40;;;62.58;;
32393;SDS011;18853;45.426;9.206;2022-10-17T04:38:24;100.78;;;63.83;;
32393;SDS011;18853;45.426;9.206;2022-10-17T04:40:51;97.35;;;63.40;;
32393;SDS011;18853;45.426;9.206;2022-10-17T04:43:17;101.78;;;63.58;;
32393;SDS011;18853;45.426;9.206;2022-10-17T04:45:43;93.13;;;61.53;;
32393;SDS011;18853;45.426;9.206;2022-10-17T04:48:08;99.25;;;63.42;;
32393;SDS011;18853;45.426;9.206;2022-10-17T04:50:34;98.80;;;63.42;;
32393;SDS011;18853;45.426;9.206;2022-10-17T04:53:00;95.55;;;62.40;;
32393;SDS011;18853;45.426;9.206;2022-10-17T04:55:25;100.22;;;64.20;;
32393;SDS011;18853;45.426;9.206;2022-10-17T04:57:51;98.30;;;62.70;;
32393;SDS011;18853;45.426;9.206;2022-10-17T05:00:17;97.32;;;63.83;;
32393;SDS011;18853;45.426;9.206;2022-10-17T05:02:42;98.68;;;63.35;;
32393;SDS011;18853;45.426;9.206;2022-10-17T05:05:08;107.18;;;64.68;;
32393;SDS011;18853;45.426;9.206;2022-10-17T05:07:34;98.00;;;63.13;;
32393;SDS011;18853;45.426;9.206;2022-10-17T05:09:59;101.78;;;64.50;;
32393;SDS011;18853;45.426;9.206;2022-10-17T05:12:25;100.97;;;63.78;;
32393;SDS011;18853;45.426;9.206;2022-10-17T05:14:50;96.80;;;63.38;;
32393;SDS011;18853;45.426;9.206;2022-10-17T05:17:16;102.05;;;63.90;;
32393;SDS011;18853;45.426;9.206;2022-10-17T05:19:42;101.25;;;63.72;;
32393;SDS011;18853;45.426;9.206;2022-10-17T05:22:07;104.35;;;63.53;;
32393;SDS011;18853;45.426;9.206;2022-10-17T05:24:33;99.28;;;63.45;;
32393;SDS011;18853;45.426;9.206;2022-10-17T05:26:58;101.95;;;63.72;;
32393;SDS011;18853;45.426;9.206;2022-10-17T05:29:24;98.72;;;64.72;;
32393;SDS011;18853;45.426;9.206;2022-10-17T05:31:50;100.82;;;63.60;;
32393;SDS011;18853;45.426;9.206;2022-10-17T05:34:16;98.15;;;62.85;;
32393;SDS011;18853;45.426;9.206;2022-10-17T05:36:41;96.93;;;62.58;;
32393;SDS011;18853;45.426;9.206;2022-10-17T05:39:07;104.75;;;66.15;;
32393;SDS011;18853;45.426;9.206;2022-10-17T05:41:33;98.57;;;63.33;;
32393;SDS011;18853;45.426;9.206;2022-10-17T05:43:58;97.25;;;63.35;;
32393;SDS011;18853;45.426;9.206;2022-10-17T05:46:24;98.63;;;63.25;;
32393;SDS011;18853;45.426;9.206;2022-10-17T05:48:50;103.38;;;63.22;;
32393;SDS011;18853;45.426;9.206;2022-10-17T05:51:16;98.90;;;61.85;;
32393;SDS011;18853;45.426;9.206;2022-10-17T05:53:42;97.05;;;62.15;;
32393;SDS011;18853;45.426;9.206;2022-10-17T05:56:08;99.90;;;64.22;;
32393;SDS011;18853;45.426;9.206;2022-10-17T05:58:35;95.63;;;62.78;;
32393;SDS011;18853;45.426;9.206;2022-10-17T06:01:04;93.13;;;60.67;;
32393;SDS011;18853;45.426;9.206;2022-10-17T06:03:31;94.05;;;60.38;;
32393;SDS011;18853;45.426;9.206;2022-10-17T06:06:04;94.90;;;58.25;;
32393;SDS011;18853;45.426;9.206;2022-10-17T06:08:34;91.65;;;59.75;;
32393;SDS011;18853;45.426;9.206;2022-10-17T06:11:00;96.72;;;60.42;;
32393;SDS011;18853;45.426;9.206;2022-10-17T06:13:26;101.35;;;63.50;;
32393;SDS011;18853;45.426;9.206;2022-10-17T06:15:52;105.28;;;63.60;;
32393;SDS011;18853;45.426;9.206;2022-10-17T06:18:18;106.47;;;63.67;;
32393;SDS011;18853;45.426;9.206;2022-10-17T06:20:44;97.53;;;62.42;;
32393;SDS011;18853;45.426;9.206;2022-10-17T06:23:10;102.40;;;63.90;;
32393;SDS011;18853;45.426;9.206;2022-10-17T06:25:35;100.30;;;63.13;;
32393;SDS011;18853;45.426;9.206;2022-10-17T06:28:01;105.82;;;64.72;;
32393;SDS011;18853;45.426;9.206;2022-10-17T06:30:27;102.35;;;63.33;;
32393;SDS011;18853;45.426;9.206;2022-10-17T06:32:52;105.60;;;67.10;;
32393;SDS011;18853;45.426;9.206;2022-10-17T06:35:18;101.75;;;63.67;;
32393;SDS011;18853;45.426;9.206;2022-10-17T06:37:44;105.32;;;63.50;;
32393;SDS011;18853;45.426;9.206;2022-10-17T06:40:10;106.65;;;64.32;;
32393;SDS011;18853;45.426;9.206;2022-10-17T06:42:39;106.78;;;65.07;;
32393;SDS011;18853;45.426;9.206;2022-10-17T06:45:06;114.70;;;65.57;;
32393;SDS011;18853;45.426;9.206;2022-10-17T06:47:33;109.15;;;64.93;;
32393;SDS011;18853;45.426;9.206;2022-10-17T06:49:59;107.32;;;66.05;;
32393;SDS011;18853;45.426;9.206;2022-10-17T06:52:24;102.45;;;65.60;;
32393;SDS011;18853;45.426;9.206;2022-10-17T06:54:50;106.93;;;66.93;;
32393;SDS011;18853;45.426;9.206;2022-10-17T06:57:16;104.82;;;64.53;;
32393;SDS011;18853;45.426;9.206;2022-10-17T06:59:42;105.97;;;65.22;;
32393;SDS011;18853;45.426;9.206;2022-10-17T07:02:08;135.43;;;92.13;;
32393;SDS011;18853;45.426;9.206;2022-10-17T07:04:35;148.25;;;98.85;;
32393;SDS011;18853;45.426;9.206;2022-10-17T07:07:01;136.20;;;90.20;;
32393;SDS011;18853;45.426;9.206;2022-10-17T07:09:27;126.22;;;80.93;;
32393;SDS011;18853;45.426;9.206;2022-10-17T07:11:53;113.47;;;71.50;;
32393;SDS011;18853;45.426;9.206;2022-10-17T07:14:19;108.60;;;69.85;;
32393;SDS011;18853;45.426;9.206;2022-10-17T07:16:45;109.93;;;66.90;;
32393;SDS011;18853;45.426;9.206;2022-10-17T07:19:11;109.75;;;66.18;;
32393;SDS011;18853;45.426;9.206;2022-10-17T07:21:37;102.50;;;63.88;;
32393;SDS011;18853;45.426;9.206;2022-10-17T07:24:02;105.70;;;62.45;;
32393;SDS011;18853;45.426;9.206;2022-10-17T07:26:29;103.75;;;64.30;;
32393;SDS011;18853;45.426;9.206;2022-10-17T07:28:55;103.70;;;65.18;;
32393;SDS011;18853;45.426;9.206;2022-10-17T07:31:21;102.05;;;63.40;;
32393;SDS011;18853;45.426;9.206;2022-10-17T07:33:47;105.75;;;64.43;;
32393;SDS011;18853;45.426;9.206;2022-10-17T07:36:13;113.50;;;67.32;;
32393;SDS011;18853;45.426;9.206;2022-10-17T07:38:39;112.15;;;66.88;;
32393;SDS011;18853;45.426;9.206;2022-10-17T07:41:06;110.65;;;67.55;;
32393;SDS011;18853;45.426;9.206;2022-10-17T07:43:33;114.55;;;69.60;;
32393;SDS011;18853;45.426;9.206;2022-10-17T07:46:00;114.22;;;68.15;;
32393;SDS011;18853;45.426;9.206;2022-10-17T07:48:27;123.70;;;73.57;;
32393;SDS011;18853;45.426;9.206;2022-10-17T07:50:53;124.00;;;70.88;;
32393;SDS011;18853;45.426;9.206;2022-10-17T07:53:19;124.50;;;70.30;;
32393;SDS011;18853;45.426;9.206;2022-10-17T07:55:45;125.47;;;71.82;;
32393;SDS011;18853;45.426;9.206;2022-10-17T07:58:12;125.53;;;72.03;;
32393;SDS011;18853;45.426;9.206;2022-10-17T08:00:38;122.65;;;72.95;;
32393;SDS011;18853;45.426;9.206;2022-10-17T08:03:04;120.93;;;70.97;;
32393;SDS011;18853;45.426;9.206;2022-10-17T08:05:30;123.30;;;75.28;;
32393;SDS011;18853;45.426;9.206;2022-10-17T08:07:56;122.05;;;72.00;;
32393;SDS011;18853;45.426;9.206;2022-10-17T08:10:22;124.22;;;70.93;;
32393;SDS011;18853;45.426;9.206;2022-10-17T08:12:55;135.77;;;80.72;;
32393;SDS011;18853;45.426;9.206;2022-10-17T08:15:22;149.93;;;86.75;;
32393;SDS011;18853;45.426;9.206;2022-10-17T08:17:48;151.93;;;89.45;;
32393;SDS011;18853;45.426;9.206;2022-10-17T08:20:14;153.45;;;86.97;;
32393;SDS011;18853;45.426;9.206;2022-10-17T08:22:40;138.95;;;80.18;;
32393;SDS011;18853;45.426;9.206;2022-10-17T08:25:06;140.68;;;82.63;;
32393;SDS011;18853;45.426;9.206;2022-10-17T08:27:32;147.13;;;85.35;;
32393;SDS011;18853;45.426;9.206;2022-10-17T08:29:58;136.07;;;79.70;;
32393;SDS011;18853;45.426;9.206;2022-10-17T08:32:24;126.85;;;74.72;;
32393;SDS011;18853;45.426;9.206;2022-10-17T08:34:52;135.95;;;79.25;;
32393;SDS011;18853;45.426;9.206;2022-10-17T08:37:19;137.85;;;81.35;;
32393;SDS011;18853;45.426;9.206;2022-10-17T08:39:45;141.63;;;83.50;;
32393;SDS011;18853;45.426;9.206;2022-10-17T08:42:33;147.55;;;88.78;;
32393;SDS011;18853;45.426;9.206;2022-10-17T08:47:44;155.00;;;88.10;;
32393;SDS011;18853;45.426;9.206;2022-10-17T08:53:05;159.63;;;88.80;;
32393;SDS011;18853;45.426;9.206;2022-10-17T08:55:45;163.15;;;93.25;;
32393;SDS011;18853;45.426;9.206;2022-10-17T08:58:13;162.82;;;88.68;;
32393;SDS011;18853;45.426;9.206;2022-10-17T09:06:46;138.63;;;80.30;;
32393;SDS011;18853;45.426;9.206;2022-10-17T09:09:28;151.00;;;86.25;;
32393;SDS011;18853;45.426;9.206;2022-10-17T09:15:28;141.88;;;81.60;;
32393;SDS011;18853;45.426;9.206;2022-10-17T09:20:58;120.68;;;74.05;;
32393;SDS011;18853;45.426;9.206;2022-10-17T09:23:30;128.60;;;74.70;;
32393;SDS011;18853;45.426;9.206;2022-10-17T09:26:02;130.43;;;77.72;;
32393;SDS011;18853;45.426;9.206;2022-10-17T09:28:32;133.63;;;79.97;;
32393;SDS011;18853;45.426;9.206;2022-10-17T09:33:38;137.95;;;83.38;;
32393;SDS011;18853;45.426;9.206;2022-10-17T09:36:13;137.32;;;80.40;;
32393;SDS011;18853;45.426;9.206;2022-10-17T09:38:46;132.52;;;81.32;;
32393;SDS011;18853;45.426;9.206;2022-10-17T09:41:22;130.23;;;79.95;;
32393;SDS011;18853;45.426;9.206;2022-10-17T09:43:57;134.77;;;81.85;;
32393;SDS011;18853;45.426;9.206;2022-10-17T09:46:33;129.15;;;81.32;;
32393;SDS011;18853;45.426;9.206;2022-10-17T09:49:04;142.27;;;81.57;;
32393;SDS011;18853;45.426;9.206;2022-10-17T09:51:36;119.65;;;74.65;;
32393;SDS011;18853;45.426;9.206;2022-10-17T09:54:03;128.65;;;80.10;;
32393;SDS011;18853;45.426;9.206;2022-10-17T10:02:06;110.80;;;67.53;;
32393;SDS011;18853;45.426;9.206;2022-10-17T10:05:02;109.72;;;66.88;;
32393;SDS011;18853;45.426;9.206;2022-10-17T10:07:31;109.88;;;68.55;;
32393;SDS011;18853;45.426;9.206;2022-10-17T10:10:04;113.53;;;69.68;;
32393;SDS011;18853;45.426;9.206;2022-10-17T10:12:34;108.63;;;65.63;;
32393;SDS011;18853;45.426;9.206;2022-10-17T10:15:08;107.95;;;65.88;;
32393;SDS011;18853;45.426;9.206;2022-10-17T10:18:25;105.32;;;67.85;;
32393;SDS011;18853;45.426;9.206;2022-10-17T10:23:36;106.60;;;64.78;;
32393;SDS011;18853;45.426;9.206;2022-10-17T10:26:16;102.97;;;59.95;;
32393;SDS011;18853;45.426;9.206;2022-10-17T10:31:27;100.53;;;62.60;;
32393;SDS011;18853;45.426;9.206;2022-10-17T10:33:59;93.22;;;57.65;;
32393;SDS011;18853;45.426;9.206;2022-10-17T10:36:43;98.30;;;60.22;;
32393;SDS011;18853;45.426;9.206;2022-10-17T10:39:22;90.25;;;56.90;;
32393;SDS011;18853;45.426;9.206;2022-10-17T10:42:05;92.78;;;56.22;;
32393;SDS011;18853;45.426;9.206;2022-10-17T10:44:42;88.50;;;54.50;;
32393;SDS011;18853;45.426;9.206;2022-10-17T10:47:19;87.68;;;55.10;;
32393;SDS011;18853;45.426;9.206;2022-10-17T10:49:45;85.60;;;52.95;;
32393;SDS011;18853;45.426;9.206;2022-10-17T10:52:17;85.82;;;54.22;;
32393;SDS011;18853;45.426;9.206;2022-10-17T10:55:02;81.20;;;52.08;;
32393;SDS011;18853;45.426;9.206;2022-10-17T10:57:40;86.72;;;51.92;;
32393;SDS011;18853;45.426;9.206;2022-10-17T11:00:11;88.18;;;52.30;;
32393;SDS011;18853;45.426;9.206;2022-10-17T11:02:48;80.45;;;49.78;;
32393;SDS011;18853;45.426;9.206;2022-10-17T11:07:59;77.15;;;48.90;;
32393;SDS011;18853;45.426;9.206;2022-10-17T11:10:43;86.05;;;52.33;;
32393;SDS011;18853;45.426;9.206;2022-10-17T11:13:33;81.50;;;50.58;;
32393;SDS011;18853;45.426;9.206;2022-10-17T11:18:33;82.03;;;53.28;;
32393;SDS011;18853;45.426;9.206;2022-10-17T11:26:23;80.55;;;51.65;;
32393;SDS011;18853;45.426;9.206;2022-10-17T11:28:52;85.57;;;53.85;;
32393;SDS011;18853;45.426;9.206;2022-10-17T11:31:20;76.18;;;50.88;;
32393;SDS011;18853;45.426;9.206;2022-10-17T11:34:09;80.88;;;50.67;;
32393;SDS011;18853;45.426;9.206;2022-10-17T11:36:43;78.88;;;49.72;;
32393;SDS011;18853;45.426;9.206;2022-10-17T11:41:59;76.60;;;48.20;;
32393;SDS011;18853;45.426;9.206;2022-10-17T11:44:35;73.78;;;48.08;;
32393;SDS011;18853;45.426;9.206;2022-10-17T11:47:05;71.43;;;47.33;;
32393;SDS011;18853;45.426;9.206;2022-10-17T11:49:43;71.45;;;47.40;;
32393;SDS011;18853;45.426;9.206;2022-10-17T11:55:02;74.00;;;47.03;;
32393;SDS011;18853;45.426;9.206;2022-10-17T11:58:14;69.35;;;45.42;;
32393;SDS011;18853;45.426;9.206;2022-10-17T12:01:03;70.40;;;46.85;;
32393;SDS011;18853;45.426;9.206;2022-10-17T12:09:31;73.47;;;48.50;;
32393;SDS011;18853;45.426;9.206;2022-10-17T12:12:17;68.10;;;45.08;;
32393;SDS011;18853;45.426;9.206;2022-10-17T12:14:52;69.00;;;46.65;;
32393;SDS011;18853;45.426;9.206;2022-10-17T12:19:46;65.35;;;43.45;;
32393;SDS011;18853;45.426;9.206;2022-10-17T12:24:51;71.82;;;47.67;;
32393;SDS011;18853;45.426;9.206;2022-10-17T12:30:04;67.18;;;44.78;;
32393;SDS011;18853;45.426;9.206;2022-10-17T12:32:52;73.45;;;48.17;;
32393;SDS011;18853;45.426;9.206;2022-10-17T12:35:19;68.97;;;45.95;;
32393;SDS011;18853;45.426;9.206;2022-10-17T12:43:46;68.50;;;44.70;;
32393;SDS011;18853;45.426;9.206;2022-10-17T12:45:52;73.00;;;47.67;;
32393;SDS011;18853;45.426;9.206;2022-10-17T12:51:06;67.85;;;46.47;;
32393;SDS011;18853;45.426;9.206;2022-10-17T12:56:14;69.93;;;47.03;;
32393;SDS011;18853;45.426;9.206;2022-10-17T12:58:55;69.90;;;44.83;;
32393;SDS011;18853;45.426;9.206;2022-10-17T13:01:31;72.70;;;47.35;;
32393;SDS011;18853;45.426;9.206;2022-10-17T13:04:00;66.35;;;44.15;;
32393;SDS011;18853;45.426;9.206;2022-10-17T13:06:30;64.07;;;42.45;;
32393;SDS011;18853;45.426;9.206;2022-10-17T13:09:03;68.82;;;46.33;;
32393;SDS011;18853;45.426;9.206;2022-10-17T13:11:34;72.10;;;45.72;;
32393;SDS011;18853;45.426;9.206;2022-10-17T13:14:02;75.70;;;46.72;;
32393;SDS011;18853;45.426;9.206;2022-10-17T13:16:36;70.03;;;47.00;;
32393;SDS011;18853;45.426;9.206;2022-10-17T13:19:10;71.15;;;46.42;;
32393;SDS011;18853;45.426;9.206;2022-10-17T13:24:28;70.03;;;45.43;;
32393;SDS011;18853;45.426;9.206;2022-10-17T13:26:54;66.30;;;43.72;;
32393;SDS011;18853;45.426;9.206;2022-10-17T13:29:20;66.30;;;43.30;;
32393;SDS011;18853;45.426;9.206;2022-10-17T13:31:53;57.75;;;40.80;;
32393;SDS011;18853;45.426;9.206;2022-10-17T13:34:23;62.20;;;39.50;;
32393;SDS011;18853;45.426;9.206;2022-10-17T13:36:57;61.70;;;40.78;;
32393;SDS011;18853;45.426;9.206;2022-10-17T13:39:39;68.13;;;44.55;;
32393;SDS011;18853;45.426;9.206;2022-10-17T13:42:15;59.67;;;39.20;;
32393;SDS011;18853;45.426;9.206;2022-10-17T13:44:49;56.20;;;38.15;;
32393;SDS011;18853;45.426;9.206;2022-10-17T13:47:22;63.55;;;40.78;;
32393;SDS011;18853;45.426;9.206;2022-10-17T13:49:53;60.30;;;41.53;;
32393;SDS011;18853;45.426;9.206;2022-10-17T13:52:21;59.60;;;41.50;;
32393;SDS011;18853;45.426;9.206;2022-10-17T13:54:50;51.58;;;37.13;;
32393;SDS011;18853;45.426;9.206;2022-10-17T13:59:49;57.60;;;39.03;;
32393;SDS011;18853;45.426;9.206;2022-10-17T14:02:20;53.45;;;36.25;;
32393;SDS011;18853;45.426;9.206;2022-10-17T14:05:01;55.45;;;37.20;;
32393;SDS011;18853;45.426;9.206;2022-10-17T14:12:56;54.25;;;38.20;;
32393;SDS011;18853;45.426;9.206;2022-10-17T14:15:24;63.10;;;41.92;;
32393;SDS011;18853;45.426;9.206;2022-10-17T14:17:53;58.75;;;38.92;;
32393;SDS011;18853;45.426;9.206;2022-10-17T14:20:24;49.58;;;35.28;;
32393;SDS011;18853;45.426;9.206;2022-10-17T14:22:52;67.70;;;43.90;;
32393;SDS011;18853;45.426;9.206;2022-10-17T14:28:27;55.22;;;37.42;;
32393;SDS011;18853;45.426;9.206;2022-10-17T14:30:53;56.53;;;36.85;;
32393;SDS011;18853;45.426;9.206;2022-10-17T14:33:42;53.53;;;36.03;;
32393;SDS011;18853;45.426;9.206;2022-10-17T14:36:12;53.22;;;36.25;;
32393;SDS011;18853;45.426;9.206;2022-10-17T14:38:43;53.60;;;37.60;;
32393;SDS011;18853;45.426;9.206;2022-10-17T14:41:22;59.55;;;39.70;;
32393;SDS011;18853;45.426;9.206;2022-10-17T14:43:54;57.42;;;39.15;;
32393;SDS011;18853;45.426;9.206;2022-10-17T14:46:24;56.95;;;40.30;;
32393;SDS011;18853;45.426;9.206;2022-10-17T14:48:56;56.58;;;38.65;;
32393;SDS011;18853;45.426;9.206;2022-10-17T14:51:27;50.80;;;36.97;;
32393;SDS011;18853;45.426;9.206;2022-10-17T14:56:50;50.17;;;31.98;;
32393;SDS011;18853;45.426;9.206;2022-10-17T14:59:17;48.50;;;33.58;;
32393;SDS011;18853;45.426;9.206;2022-10-17T15:01:46;50.42;;;34.40;;
32393;SDS011;18853;45.426;9.206;2022-10-17T15:04:13;51.63;;;34.20;;
32393;SDS011;18853;45.426;9.206;2022-10-17T15:06:39;53.35;;;35.05;;
32393;SDS011;18853;45.426;9.206;2022-10-17T15:09:05;53.97;;;34.50;;
32393;SDS011;18853;45.426;9.206;2022-10-17T15:11:31;50.42;;;36.70;;
32393;SDS011;18853;45.426;9.206;2022-10-17T15:13:57;51.53;;;36.35;;
32393;SDS011;18853;45.426;9.206;2022-10-17T15:18:49;51.55;;;34.47;;
32393;SDS011;18853;45.426;9.206;2022-10-17T15:21:16;51.90;;;35.30;;
32393;SDS011;18853;45.426;9.206;2022-10-17T15:23:43;54.17;;;34.50;;
32393;SDS011;18853;45.426;9.206;2022-10-17T15:28:43;51.20;;;33.17;;
32393;SDS011;18853;45.426;9.206;2022-10-17T15:31:13;54.15;;;36.45;;
32393;SDS011;18853;45.426;9.206;2022-10-17T15:33:40;47.60;;;33.28;;
32393;SDS011;18853;45.426;9.206;2022-10-17T15:36:40;50.08;;;34.78;;
32393;SDS011;18853;45.426;9.206;2022-10-17T15:39:03;46.03;;;33.22;;
32393;SDS011;18853;45.426;9.206;2022-10-17T15:41:30;53.13;;;36.50;;
32393;SDS011;18853;45.426;9.206;2022-10-17T15:43:56;51.20;;;34.22;;
32393;SDS011;18853;45.426;9.206;2022-10-17T15:46:23;45.97;;;31.48;;
32393;SDS011;18853;45.426;9.206;2022-10-17T15:48:52;50.42;;;32.72;;
32393;SDS011;18853;45.426;9.206;2022-10-17T15:51:18;49.72;;;32.63;;
32393;SDS011;18853;45.426;9.206;2022-10-17T15:53:45;48.58;;;33.85;;
32393;SDS011;18853;45.426;9.206;2022-10-17T15:56:14;54.78;;;37.40;;
32393;SDS011;18853;45.426;9.206;2022-10-17T15:58:43;55.08;;;38.22;;
32393;SDS011;18853;45.426;9.206;2022-10-17T16:01:10;52.17;;;37.05;;
32393;SDS011;18853;45.426;9.206;2022-10-17T16:03:52;57.25;;;36.90;;
32393;SDS011;18853;45.426;9.206;2022-10-17T16:06:18;51.20;;;36.22;;
32393;SDS011;18853;45.426;9.206;2022-10-17T16:08:45;52.97;;;35.80;;
32393;SDS011;18853;45.426;9.206;2022-10-17T16:11:45;55.60;;;36.15;;
32393;SDS011;18853;45.426;9.206;2022-10-17T16:14:06;57.05;;;37.80;;
32393;SDS011;18853;45.426;9.206;2022-10-17T16:16:40;56.50;;;37.73;;
32393;SDS011;18853;45.426;9.206;2022-10-17T16:19:06;56.78;;;36.90;;
32393;SDS011;18853;45.426;9.206;2022-10-17T16:21:33;56.97;;;37.55;;
32393;SDS011;18853;45.426;9.206;2022-10-17T16:24:01;52.45;;;36.40;;
32393;SDS011;18853;45.426;9.206;2022-10-17T16:26:27;54.50;;;36.25;;
32393;SDS011;18853;45.426;9.206;2022-10-17T16:28:53;53.65;;;35.35;;
32393;SDS011;18853;45.426;9.206;2022-10-17T16:31:30;50.55;;;35.42;;
32393;SDS011;18853;45.426;9.206;2022-10-17T16:33:59;51.30;;;34.95;;
32393;SDS011;18853;45.426;9.206;2022-10-17T16:36:25;47.97;;;35.40;;
32393;SDS011;18853;45.426;9.206;2022-10-17T16:38:51;52.58;;;36.25;;
32393;SDS011;18853;45.426;9.206;2022-10-17T16:43:57;49.78;;;33.92;;
32393;SDS011;18853;45.426;9.206;2022-10-17T16:46:25;46.40;;;33.33;;
32393;SDS011;18853;45.426;9.206;2022-10-17T16:48:52;45.13;;;33.40;;
32393;SDS011;18853;45.426;9.206;2022-10-17T16:51:18;44.45;;;33.13;;